sensor_id;sensor_type;location;lat;lon;timestamp;P1;durP1;ratioP1;P2;durP2;ratioP2
21305;SDS011;10812;51.838;5.838;2023-05-13T00:01:17;4.60;;;3.40;;
21305;SDS011;10812;51.838;5.838;2023-05-13T00:03:46;4.73;;;3.07;;
21305;SDS011;10812;51.838;5.838;2023-05-13T00:06:15;3.47;;;3.07;;
21305;SDS011;10812;51.838;5.838;2023-05-13T00:23:55;3.60;;;3.30;;
21305;SDS011;10812;51.838;5.838;2023-05-13T00:26:23;5.90;;;4.00;;
21305;SDS011;10812;51.838;5.838;2023-05-13T00:28:51;5.30;;;3.77;;
21305;SDS011;10812;51.838;5.838;2023-05-13T00:31:19;5.07;;;3.23;;
21305;SDS011;10812;51.838;5.838;2023-05-13T00:33:48;4.57;;;3.77;;
21305;SDS011;10812;51.838;5.838;2023-05-13T00:36:16;4.93;;;3.53;;
21305;SDS011;10812;51.838;5.838;2023-05-13T00:38:45;4.40;;;3.33;;
21305;SDS011;10812;51.838;5.838;2023-05-13T00:41:13;4.80;;;3.57;;
21305;SDS011;10812;51.838;5.838;2023-05-13T00:43:42;6.17;;;3.67;;
21305;SDS011;10812;51.838;5.838;2023-05-13T00:46:10;5.20;;;3.93;;
21305;SDS011;10812;51.838;5.838;2023-05-13T00:48:38;6.20;;;3.70;;
21305;SDS011;10812;51.838;5.838;2023-05-13T00:51:06;4.77;;;4.10;;
21305;SDS011;10812;51.838;5.838;2023-05-13T00:53:34;5.87;;;3.77;;
21305;SDS011;10812;51.838;5.838;2023-05-13T00:56:05;5.07;;;3.90;;
21305;SDS011;10812;51.838;5.838;2023-05-13T00:58:33;4.57;;;3.70;;
21305;SDS011;10812;51.838;5.838;2023-05-13T01:01:04;4.83;;;3.93;;
21305;SDS011;10812;51.838;5.838;2023-05-13T01:03:42;6.40;;;3.70;;
21305;SDS011;10812;51.838;5.838;2023-05-13T01:06:17;6.23;;;3.57;;
21305;SDS011;10812;51.838;5.838;2023-05-13T01:08:51;4.97;;;3.53;;
21305;SDS011;10812;51.838;5.838;2023-05-13T01:11:26;4.13;;;3.53;;
21305;SDS011;10812;51.838;5.838;2023-05-13T01:13:58;4.43;;;3.23;;
21305;SDS011;10812;51.838;5.838;2023-05-13T01:24:07;6.73;;;3.70;;
21305;SDS011;10812;51.838;5.838;2023-05-13T01:26:35;4.80;;;3.53;;
21305;SDS011;10812;51.838;5.838;2023-05-13T01:29:03;5.83;;;3.97;;
21305;SDS011;10812;51.838;5.838;2023-05-13T01:31:31;5.97;;;3.80;;
21305;SDS011;10812;51.838;5.838;2023-05-13T01:34:00;5.03;;;4.03;;
21305;SDS011;10812;51.838;5.838;2023-05-13T01:36:29;4.70;;;4.13;;
21305;SDS011;10812;51.838;5.838;2023-05-13T01:38:58;6.73;;;4.00;;
21305;SDS011;10812;51.838;5.838;2023-05-13T01:41:29;5.50;;;3.87;;
21305;SDS011;10812;51.838;5.838;2023-05-13T01:43:57;6.33;;;3.80;;
21305;SDS011;10812;51.838;5.838;2023-05-13T01:46:25;4.87;;;3.73;;
21305;SDS011;10812;51.838;5.838;2023-05-13T01:48:53;5.97;;;4.10;;
21305;SDS011;10812;51.838;5.838;2023-05-13T01:51:21;4.53;;;3.83;;
21305;SDS011;10812;51.838;5.838;2023-05-13T01:53:49;5.77;;;4.37;;
21305;SDS011;10812;51.838;5.838;2023-05-13T01:56:17;6.33;;;4.23;;
21305;SDS011;10812;51.838;5.838;2023-05-13T01:58:47;6.80;;;4.30;;
21305;SDS011;10812;51.838;5.838;2023-05-13T02:01:16;8.77;;;4.93;;
21305;SDS011;10812;51.838;5.838;2023-05-13T02:03:47;7.03;;;4.30;;
21305;SDS011;10812;51.838;5.838;2023-05-13T02:06:15;8.90;;;4.30;;
21305;SDS011;10812;51.838;5.838;2023-05-13T02:08:45;8.70;;;5.03;;
21305;SDS011;10812;51.838;5.838;2023-05-13T02:11:13;7.00;;;4.20;;
21305;SDS011;10812;51.838;5.838;2023-05-13T02:13:42;5.23;;;4.33;;
21305;SDS011;10812;51.838;5.838;2023-05-13T02:16:11;5.77;;;4.63;;
21305;SDS011;10812;51.838;5.838;2023-05-13T02:18:43;6.90;;;4.17;;
21305;SDS011;10812;51.838;5.838;2023-05-13T02:21:11;5.87;;;4.73;;
21305;SDS011;10812;51.838;5.838;2023-05-13T02:23:39;5.97;;;5.13;;
21305;SDS011;10812;51.838;5.838;2023-05-13T02:26:07;5.77;;;4.90;;
21305;SDS011;10812;51.838;5.838;2023-05-13T02:28:36;5.33;;;4.83;;
21305;SDS011;10812;51.838;5.838;2023-05-13T02:31:04;7.53;;;4.60;;
21305;SDS011;10812;51.838;5.838;2023-05-13T02:33:34;5.70;;;4.50;;
21305;SDS011;10812;51.838;5.838;2023-05-13T02:36:02;5.67;;;5.00;;
21305;SDS011;10812;51.838;5.838;2023-05-13T02:38:30;6.47;;;4.70;;
21305;SDS011;10812;51.838;5.838;2023-05-13T02:40:59;6.83;;;5.30;;
21305;SDS011;10812;51.838;5.838;2023-05-13T02:43:27;7.13;;;5.03;;
21305;SDS011;10812;51.838;5.838;2023-05-13T02:45:55;6.87;;;4.73;;
21305;SDS011;10812;51.838;5.838;2023-05-13T02:48:23;9.63;;;5.27;;
21305;SDS011;10812;51.838;5.838;2023-05-13T02:50:52;9.07;;;4.83;;
21305;SDS011;10812;51.838;5.838;2023-05-13T02:53:21;7.80;;;5.83;;
21305;SDS011;10812;51.838;5.838;2023-05-13T02:55:49;5.87;;;5.27;;
21305;SDS011;10812;51.838;5.838;2023-05-13T02:58:17;6.23;;;5.40;;
21305;SDS011;10812;51.838;5.838;2023-05-13T03:06:17;5.90;;;4.90;;
21305;SDS011;10812;51.838;5.838;2023-05-13T03:08:45;5.73;;;5.23;;
21305;SDS011;10812;51.838;5.838;2023-05-13T03:19:01;7.13;;;5.67;;
21305;SDS011;10812;51.838;5.838;2023-05-13T03:21:31;7.77;;;5.67;;
21305;SDS011;10812;51.838;5.838;2023-05-13T03:23:59;7.30;;;5.37;;
21305;SDS011;10812;51.838;5.838;2023-05-13T03:29:47;9.43;;;6.27;;
21305;SDS011;10812;51.838;5.838;2023-05-13T03:32:16;8.73;;;6.10;;
21305;SDS011;10812;51.838;5.838;2023-05-13T03:34:44;9.17;;;6.13;;
21305;SDS011;10812;51.838;5.838;2023-05-13T03:37:13;7.80;;;6.40;;
21305;SDS011;10812;51.838;5.838;2023-05-13T03:39:41;7.67;;;6.63;;
21305;SDS011;10812;51.838;5.838;2023-05-13T03:42:09;7.20;;;5.93;;
21305;SDS011;10812;51.838;5.838;2023-05-13T03:44:37;7.73;;;6.23;;
21305;SDS011;10812;51.838;5.838;2023-05-13T03:47:05;9.23;;;6.37;;
21305;SDS011;10812;51.838;5.838;2023-05-13T03:49:34;7.23;;;6.50;;
21305;SDS011;10812;51.838;5.838;2023-05-13T03:52:02;6.60;;;6.00;;
21305;SDS011;10812;51.838;5.838;2023-05-13T03:54:34;7.10;;;6.17;;
21305;SDS011;10812;51.838;5.838;2023-05-13T03:57:02;8.20;;;7.00;;
21305;SDS011;10812;51.838;5.838;2023-05-13T03:59:30;9.40;;;6.30;;
21305;SDS011;10812;51.838;5.838;2023-05-13T04:01:58;9.57;;;6.93;;
21305;SDS011;10812;51.838;5.838;2023-05-13T04:04:27;9.77;;;6.73;;
21305;SDS011;10812;51.838;5.838;2023-05-13T04:06:55;9.33;;;7.23;;
21305;SDS011;10812;51.838;5.838;2023-05-13T04:09:23;7.97;;;6.53;;
21305;SDS011;10812;51.838;5.838;2023-05-13T04:11:53;8.90;;;6.87;;
21305;SDS011;10812;51.838;5.838;2023-05-13T04:14:21;6.93;;;6.00;;
21305;SDS011;10812;51.838;5.838;2023-05-13T04:16:49;6.57;;;5.90;;
21305;SDS011;10812;51.838;5.838;2023-05-13T04:19:17;11.23;;;6.90;;
21305;SDS011;10812;51.838;5.838;2023-05-13T04:21:45;8.50;;;6.77;;
21305;SDS011;10812;51.838;5.838;2023-05-13T04:24:13;11.50;;;6.50;;
21305;SDS011;10812;51.838;5.838;2023-05-13T04:26:42;9.07;;;6.87;;
21305;SDS011;10812;51.838;5.838;2023-05-13T04:29:11;6.67;;;6.00;;
21305;SDS011;10812;51.838;5.838;2023-05-13T04:31:40;8.63;;;6.50;;
21305;SDS011;10812;51.838;5.838;2023-05-13T04:34:08;10.03;;;7.60;;
21305;SDS011;10812;51.838;5.838;2023-05-13T04:36:36;8.70;;;5.77;;
21305;SDS011;10812;51.838;5.838;2023-05-13T04:39:04;7.27;;;6.57;;
21305;SDS011;10812;51.838;5.838;2023-05-13T04:45:24;8.37;;;5.90;;
21305;SDS011;10812;51.838;5.838;2023-05-13T04:47:53;9.23;;;6.63;;
21305;SDS011;10812;51.838;5.838;2023-05-13T04:50:23;9.30;;;7.37;;
21305;SDS011;10812;51.838;5.838;2023-05-13T04:52:52;9.33;;;6.90;;
21305;SDS011;10812;51.838;5.838;2023-05-13T04:55:21;8.17;;;6.70;;
21305;SDS011;10812;51.838;5.838;2023-05-13T04:57:53;6.97;;;6.23;;
21305;SDS011;10812;51.838;5.838;2023-05-13T05:00:21;18.03;;;6.97;;
21305;SDS011;10812;51.838;5.838;2023-05-13T05:02:50;7.73;;;6.47;;
21305;SDS011;10812;51.838;5.838;2023-05-13T05:09:10;8.37;;;6.40;;
21305;SDS011;10812;51.838;5.838;2023-05-13T05:11:38;8.07;;;6.63;;
21305;SDS011;10812;51.838;5.838;2023-05-13T05:14:06;7.80;;;6.37;;
21305;SDS011;10812;51.838;5.838;2023-05-13T05:16:34;8.80;;;6.13;;
21305;SDS011;10812;51.838;5.838;2023-05-13T05:19:03;8.93;;;6.80;;
21305;SDS011;10812;51.838;5.838;2023-05-13T05:21:32;7.73;;;6.63;;
21305;SDS011;10812;51.838;5.838;2023-05-13T05:24:00;7.70;;;6.90;;
21305;SDS011;10812;51.838;5.838;2023-05-13T05:26:28;7.63;;;6.60;;
21305;SDS011;10812;51.838;5.838;2023-05-13T05:28:56;8.00;;;7.20;;
21305;SDS011;10812;51.838;5.838;2023-05-13T05:31:24;7.97;;;6.30;;
21305;SDS011;10812;51.838;5.838;2023-05-13T05:33:53;8.43;;;6.40;;
21305;SDS011;10812;51.838;5.838;2023-05-13T05:36:23;8.43;;;7.10;;
21305;SDS011;10812;51.838;5.838;2023-05-13T05:38:52;7.40;;;6.33;;
21305;SDS011;10812;51.838;5.838;2023-05-13T05:41:20;6.70;;;6.00;;
21305;SDS011;10812;51.838;5.838;2023-05-13T05:43:48;7.20;;;6.50;;
21305;SDS011;10812;51.838;5.838;2023-05-13T05:46:16;8.63;;;6.37;;
21305;SDS011;10812;51.838;5.838;2023-05-13T05:48:44;8.53;;;6.27;;
21305;SDS011;10812;51.838;5.838;2023-05-13T05:51:12;9.00;;;5.77;;
21305;SDS011;10812;51.838;5.838;2023-05-13T06:12:56;9.03;;;6.93;;
21305;SDS011;10812;51.838;5.838;2023-05-13T06:15:25;8.90;;;6.60;;
21305;SDS011;10812;51.838;5.838;2023-05-13T06:17:53;8.43;;;6.77;;
21305;SDS011;10812;51.838;5.838;2023-05-13T06:20:21;7.27;;;6.57;;
21305;SDS011;10812;51.838;5.838;2023-05-13T06:22:49;7.20;;;6.50;;
21305;SDS011;10812;51.838;5.838;2023-05-13T06:25:17;8.60;;;6.27;;
21305;SDS011;10812;51.838;5.838;2023-05-13T06:27:46;8.57;;;7.20;;
21305;SDS011;10812;51.838;5.838;2023-05-13T06:30:15;7.17;;;6.10;;
21305;SDS011;10812;51.838;5.838;2023-05-13T06:32:43;7.53;;;6.83;;
21305;SDS011;10812;51.838;5.838;2023-05-13T06:35:26;8.63;;;6.03;;
21305;SDS011;10812;51.838;5.838;2023-05-13T06:37:54;6.97;;;6.35;;
21305;SDS011;10812;51.838;5.838;2023-05-13T06:40:22;8.27;;;6.30;;
21305;SDS011;10812;51.838;5.838;2023-05-13T06:50:24;9.85;;;6.55;;
21305;SDS011;10812;51.838;5.838;2023-05-13T06:52:52;7.10;;;5.97;;
21305;SDS011;10812;51.838;5.838;2023-05-13T06:55:20;7.32;;;5.72;;
21305;SDS011;10812;51.838;5.838;2023-05-13T06:57:48;6.05;;;5.40;;
21305;SDS011;10812;51.838;5.838;2023-05-13T07:00:17;7.80;;;5.90;;
21305;SDS011;10812;51.838;5.838;2023-05-13T07:02:45;7.13;;;5.68;;
21305;SDS011;10812;51.838;5.838;2023-05-13T07:05:13;7.97;;;5.65;;
21305;SDS011;10812;51.838;5.838;2023-05-13T07:07:43;8.02;;;5.95;;
21305;SDS011;10812;51.838;5.838;2023-05-13T07:10:11;7.95;;;5.90;;
21305;SDS011;10812;51.838;5.838;2023-05-13T07:12:39;7.93;;;5.65;;
21305;SDS011;10812;51.838;5.838;2023-05-13T07:15:08;8.27;;;5.97;;
21305;SDS011;10812;51.838;5.838;2023-05-13T07:17:36;7.05;;;5.93;;
21305;SDS011;10812;51.838;5.838;2023-05-13T07:20:05;6.28;;;5.68;;
21305;SDS011;10812;51.838;5.838;2023-05-13T07:22:35;7.10;;;5.93;;
21305;SDS011;10812;51.838;5.838;2023-05-13T07:32:35;6.20;;;5.45;;
21305;SDS011;10812;51.838;5.838;2023-05-13T07:35:04;6.07;;;5.47;;
21305;SDS011;10812;51.838;5.838;2023-05-13T07:37:33;6.63;;;5.75;;
21305;SDS011;10812;51.838;5.838;2023-05-13T07:40:02;6.13;;;5.30;;
21305;SDS011;10812;51.838;5.838;2023-05-13T07:45:49;7.28;;;5.50;;
21305;SDS011;10812;51.838;5.838;2023-05-13T07:48:18;9.60;;;5.43;;
21305;SDS011;10812;51.838;5.838;2023-05-13T07:50:47;5.80;;;5.20;;
21305;SDS011;10812;51.838;5.838;2023-05-13T07:53:15;7.03;;;5.05;;
21305;SDS011;10812;51.838;5.838;2023-05-13T07:55:45;5.40;;;4.90;;
21305;SDS011;10812;51.838;5.838;2023-05-13T07:58:13;7.93;;;4.53;;
21305;SDS011;10812;51.838;5.838;2023-05-13T08:16:26;5.82;;;4.10;;
21305;SDS011;10812;51.838;5.838;2023-05-13T08:18:54;9.02;;;5.05;;
21305;SDS011;10812;51.838;5.838;2023-05-13T08:24:43;4.80;;;4.40;;
21305;SDS011;10812;51.838;5.838;2023-05-13T08:27:11;5.22;;;4.45;;
21305;SDS011;10812;51.838;5.838;2023-05-13T08:32:52;6.07;;;4.40;;
21305;SDS011;10812;51.838;5.838;2023-05-13T08:35:20;4.97;;;4.57;;
21305;SDS011;10812;51.838;5.838;2023-05-13T08:37:49;6.20;;;4.35;;
21305;SDS011;10812;51.838;5.838;2023-05-13T08:40:17;4.47;;;4.13;;
21305;SDS011;10812;51.838;5.838;2023-05-13T08:42:46;5.50;;;5.00;;
21305;SDS011;10812;51.838;5.838;2023-05-13T08:45:19;5.68;;;4.55;;
21305;SDS011;10812;51.838;5.838;2023-05-13T08:47:49;4.68;;;4.28;;
21305;SDS011;10812;51.838;5.838;2023-05-13T08:50:20;4.70;;;4.30;;
21305;SDS011;10812;51.838;5.838;2023-05-13T08:52:49;5.20;;;4.63;;
21305;SDS011;10812;51.838;5.838;2023-05-13T08:55:18;5.88;;;4.05;;
21305;SDS011;10812;51.838;5.838;2023-05-13T08:57:48;6.28;;;4.57;;
21305;SDS011;10812;51.838;5.838;2023-05-13T09:00:16;7.55;;;4.70;;
21305;SDS011;10812;51.838;5.838;2023-05-13T09:02:47;6.97;;;4.60;;
21305;SDS011;10812;51.838;5.838;2023-05-13T09:05:16;7.15;;;4.32;;
21305;SDS011;10812;51.838;5.838;2023-05-13T09:07:46;4.63;;;4.10;;
21305;SDS011;10812;51.838;5.838;2023-05-13T09:10:16;5.03;;;4.18;;
21305;SDS011;10812;51.838;5.838;2023-05-13T09:12:45;5.13;;;4.57;;
21305;SDS011;10812;51.838;5.838;2023-05-13T09:15:15;6.25;;;4.15;;
21305;SDS011;10812;51.838;5.838;2023-05-13T09:17:46;5.50;;;4.10;;
21305;SDS011;10812;51.838;5.838;2023-05-13T09:20:18;5.10;;;4.50;;
21305;SDS011;10812;51.838;5.838;2023-05-13T09:22:49;4.82;;;3.85;;
21305;SDS011;10812;51.838;5.838;2023-05-13T09:25:19;6.15;;;4.65;;
21305;SDS011;10812;51.838;5.838;2023-05-13T09:27:50;5.28;;;4.28;;
21305;SDS011;10812;51.838;5.838;2023-05-13T09:30:19;4.53;;;4.13;;
21305;SDS011;10812;51.838;5.838;2023-05-13T09:33:02;6.18;;;4.25;;
21305;SDS011;10812;51.838;5.838;2023-05-13T09:35:33;6.82;;;4.07;;
21305;SDS011;10812;51.838;5.838;2023-05-13T09:38:12;5.63;;;4.30;;
21305;SDS011;10812;51.838;5.838;2023-05-13T09:40:48;4.55;;;3.90;;
21305;SDS011;10812;51.838;5.838;2023-05-13T09:43:17;5.22;;;4.25;;
21305;SDS011;10812;51.838;5.838;2023-05-13T09:45:46;5.63;;;4.50;;
21305;SDS011;10812;51.838;5.838;2023-05-13T09:48:20;4.15;;;3.78;;
21305;SDS011;10812;51.838;5.838;2023-05-13T09:50:49;5.40;;;3.75;;
21305;SDS011;10812;51.838;5.838;2023-05-13T09:53:19;4.28;;;3.85;;
21305;SDS011;10812;51.838;5.838;2023-05-13T09:55:47;5.60;;;4.05;;
21305;SDS011;10812;51.838;5.838;2023-05-13T09:58:17;5.57;;;3.60;;
21305;SDS011;10812;51.838;5.838;2023-05-13T10:00:46;4.63;;;3.83;;
21305;SDS011;10812;51.838;5.838;2023-05-13T10:07:08;5.25;;;3.85;;
21305;SDS011;10812;51.838;5.838;2023-05-13T10:09:39;5.18;;;3.35;;
21305;SDS011;10812;51.838;5.838;2023-05-13T10:12:11;4.38;;;3.95;;
21305;SDS011;10812;51.838;5.838;2023-05-13T10:14:41;5.97;;;3.83;;
21305;SDS011;10812;51.838;5.838;2023-05-13T10:17:10;6.05;;;3.80;;
21305;SDS011;10812;51.838;5.838;2023-05-13T10:19:39;3.60;;;3.20;;
21305;SDS011;10812;51.838;5.838;2023-05-13T10:22:08;5.15;;;3.42;;
21305;SDS011;10812;51.838;5.838;2023-05-13T10:24:37;4.03;;;3.10;;
21305;SDS011;10812;51.838;5.838;2023-05-13T10:27:07;4.55;;;3.20;;
21305;SDS011;10812;51.838;5.838;2023-05-13T10:29:38;6.25;;;3.00;;
21305;SDS011;10812;51.838;5.838;2023-05-13T10:32:06;5.10;;;3.28;;
21305;SDS011;10812;51.838;5.838;2023-05-13T10:34:36;4.97;;;3.20;;
21305;SDS011;10812;51.838;5.838;2023-05-13T10:37:10;3.65;;;3.03;;
21305;SDS011;10812;51.838;5.838;2023-05-13T10:42:55;6.45;;;3.60;;
21305;SDS011;10812;51.838;5.838;2023-05-13T10:48:48;4.38;;;3.80;;
21305;SDS011;10812;51.838;5.838;2023-05-13T10:51:17;6.68;;;3.22;;
21305;SDS011;10812;51.838;5.838;2023-05-13T10:53:51;5.93;;;3.10;;
21305;SDS011;10812;51.838;5.838;2023-05-13T10:56:21;5.07;;;3.17;;
21305;SDS011;10812;51.838;5.838;2023-05-13T10:58:58;5.15;;;4.03;;
21305;SDS011;10812;51.838;5.838;2023-05-13T11:01:28;4.70;;;3.75;;
21305;SDS011;10812;51.838;5.838;2023-05-13T11:03:58;4.70;;;3.20;;
21305;SDS011;10812;51.838;5.838;2023-05-13T11:06:29;5.28;;;4.20;;
21305;SDS011;10812;51.838;5.838;2023-05-13T11:09:02;5.30;;;3.78;;
21305;SDS011;10812;51.838;5.838;2023-05-13T11:11:32;7.05;;;3.10;;
21305;SDS011;10812;51.838;5.838;2023-05-13T11:14:06;4.78;;;4.28;;
21305;SDS011;10812;51.838;5.838;2023-05-13T11:16:44;4.05;;;3.55;;
21305;SDS011;10812;51.838;5.838;2023-05-13T11:19:25;8.98;;;3.60;;
21305;SDS011;10812;51.838;5.838;2023-05-13T11:21:54;4.70;;;4.10;;
21305;SDS011;10812;51.838;5.838;2023-05-13T11:24:25;4.07;;;3.60;;
21305;SDS011;10812;51.838;5.838;2023-05-13T11:26:54;5.32;;;3.13;;
21305;SDS011;10812;51.838;5.838;2023-05-13T11:29:27;4.22;;;3.28;;
21305;SDS011;10812;51.838;5.838;2023-05-13T11:31:57;4.70;;;3.33;;
21305;SDS011;10812;51.838;5.838;2023-05-13T11:34:26;4.57;;;3.53;;
21305;SDS011;10812;51.838;5.838;2023-05-13T11:36:56;5.32;;;3.80;;
21305;SDS011;10812;51.838;5.838;2023-05-13T11:39:33;4.88;;;3.85;;
21305;SDS011;10812;51.838;5.838;2023-05-13T11:42:04;4.85;;;3.42;;
21305;SDS011;10812;51.838;5.838;2023-05-13T11:44:35;4.90;;;3.28;;
21305;SDS011;10812;51.838;5.838;2023-05-13T11:47:10;5.00;;;3.00;;
21305;SDS011;10812;51.838;5.838;2023-05-13T11:49:39;3.28;;;2.47;;
21305;SDS011;10812;51.838;5.838;2023-05-13T11:52:09;4.97;;;3.42;;
21305;SDS011;10812;51.838;5.838;2023-05-13T11:54:41;4.40;;;3.03;;
21305;SDS011;10812;51.838;5.838;2023-05-13T11:57:17;3.35;;;2.38;;
21305;SDS011;10812;51.838;5.838;2023-05-13T11:59:54;6.53;;;2.85;;
21305;SDS011;10812;51.838;5.838;2023-05-13T12:02:24;5.45;;;2.83;;
21305;SDS011;10812;51.838;5.838;2023-05-13T12:04:53;2.92;;;2.70;;
21305;SDS011;10812;51.838;5.838;2023-05-13T12:21:53;3.30;;;2.40;;
21305;SDS011;10812;51.838;5.838;2023-05-13T12:24:21;3.08;;;2.45;;
21305;SDS011;10812;51.838;5.838;2023-05-13T12:26:49;4.05;;;2.53;;
21305;SDS011;10812;51.838;5.838;2023-05-13T12:29:18;3.63;;;2.38;;
21305;SDS011;10812;51.838;5.838;2023-05-13T12:32:01;3.03;;;2.72;;
21305;SDS011;10812;51.838;5.838;2023-05-13T12:34:32;3.13;;;2.67;;
21305;SDS011;10812;51.838;5.838;2023-05-13T12:37:10;4.03;;;2.58;;
21305;SDS011;10812;51.838;5.838;2023-05-13T12:39:39;4.35;;;2.53;;
21305;SDS011;10812;51.838;5.838;2023-05-13T12:42:14;2.72;;;2.50;;
21305;SDS011;10812;51.838;5.838;2023-05-13T12:44:43;2.97;;;2.67;;
21305;SDS011;10812;51.838;5.838;2023-05-13T12:47:12;3.22;;;2.90;;
21305;SDS011;10812;51.838;5.838;2023-05-13T12:49:51;3.10;;;2.60;;
21305;SDS011;10812;51.838;5.838;2023-05-13T12:52:20;3.13;;;2.40;;
21305;SDS011;10812;51.838;5.838;2023-05-13T12:54:48;2.60;;;2.40;;
21305;SDS011;10812;51.838;5.838;2023-05-13T12:57:17;5.38;;;2.80;;
21305;SDS011;10812;51.838;5.838;2023-05-13T12:59:45;3.35;;;2.55;;
21305;SDS011;10812;51.838;5.838;2023-05-13T13:02:13;4.78;;;2.80;;
21305;SDS011;10812;51.838;5.838;2023-05-13T13:04:42;4.25;;;2.30;;
21305;SDS011;10812;51.838;5.838;2023-05-13T13:07:11;3.53;;;2.72;;
21305;SDS011;10812;51.838;5.838;2023-05-13T13:09:40;3.17;;;2.40;;
21305;SDS011;10812;51.838;5.838;2023-05-13T13:12:08;4.50;;;3.38;;
21305;SDS011;10812;51.838;5.838;2023-05-13T13:14:36;3.20;;;2.70;;
21305;SDS011;10812;51.838;5.838;2023-05-13T13:17:04;2.63;;;2.42;;
21305;SDS011;10812;51.838;5.838;2023-05-13T13:19:32;8.93;;;3.10;;
21305;SDS011;10812;51.838;5.838;2023-05-13T13:22:00;2.80;;;2.55;;
21305;SDS011;10812;51.838;5.838;2023-05-13T13:24:30;4.13;;;2.60;;
21305;SDS011;10812;51.838;5.838;2023-05-13T13:26:58;2.65;;;2.35;;
21305;SDS011;10812;51.838;5.838;2023-05-13T13:29:26;2.85;;;2.30;;
21305;SDS011;10812;51.838;5.838;2023-05-13T13:31:54;3.20;;;2.72;;
21305;SDS011;10812;51.838;5.838;2023-05-13T13:34:23;3.10;;;2.22;;
21305;SDS011;10812;51.838;5.838;2023-05-13T13:36:51;4.40;;;2.60;;
21305;SDS011;10812;51.838;5.838;2023-05-13T13:39:19;6.38;;;2.78;;
21305;SDS011;10812;51.838;5.838;2023-05-13T13:41:49;3.88;;;2.30;;
21305;SDS011;10812;51.838;5.838;2023-05-13T13:44:17;2.60;;;2.40;;
21305;SDS011;10812;51.838;5.838;2023-05-13T13:46:45;3.20;;;2.70;;
21305;SDS011;10812;51.838;5.838;2023-05-13T13:49:13;3.20;;;2.65;;
21305;SDS011;10812;51.838;5.838;2023-05-13T14:03:22;7.05;;;2.42;;
21305;SDS011;10812;51.838;5.838;2023-05-13T14:05:51;4.03;;;2.60;;
21305;SDS011;10812;51.838;5.838;2023-05-13T14:08:20;2.88;;;2.40;;
21305;SDS011;10812;51.838;5.838;2023-05-13T14:10:49;3.10;;;2.40;;
21305;SDS011;10812;51.838;5.838;2023-05-13T14:13:17;2.70;;;2.50;;
21305;SDS011;10812;51.838;5.838;2023-05-13T14:15:45;3.17;;;2.42;;
21305;SDS011;10812;51.838;5.838;2023-05-13T14:18:13;5.35;;;2.63;;
21305;SDS011;10812;51.838;5.838;2023-05-13T14:20:43;3.90;;;2.53;;
21305;SDS011;10812;51.838;5.838;2023-05-13T14:23:12;4.22;;;2.42;;
21305;SDS011;10812;51.838;5.838;2023-05-13T14:25:40;3.45;;;2.63;;
21305;SDS011;10812;51.838;5.838;2023-05-13T14:28:09;3.92;;;2.95;;
21305;SDS011;10812;51.838;5.838;2023-05-13T14:30:37;5.32;;;3.03;;
21305;SDS011;10812;51.838;5.838;2023-05-13T14:33:05;5.45;;;2.88;;
21305;SDS011;10812;51.838;5.838;2023-05-13T14:35:34;5.18;;;3.10;;
21305;SDS011;10812;51.838;5.838;2023-05-13T14:38:03;4.28;;;2.97;;
21305;SDS011;10812;51.838;5.838;2023-05-13T14:40:31;4.45;;;2.72;;
21305;SDS011;10812;51.838;5.838;2023-05-13T14:43:00;4.00;;;2.75;;
21305;SDS011;10812;51.838;5.838;2023-05-13T14:45:28;4.32;;;2.67;;
21305;SDS011;10812;51.838;5.838;2023-05-13T14:47:56;2.80;;;2.20;;
21305;SDS011;10812;51.838;5.838;2023-05-13T14:50:24;4.47;;;3.03;;
21305;SDS011;10812;51.838;5.838;2023-05-13T14:52:52;4.13;;;2.53;;
21305;SDS011;10812;51.838;5.838;2023-05-13T14:55:22;3.17;;;2.72;;
21305;SDS011;10812;51.838;5.838;2023-05-13T14:57:50;2.65;;;2.42;;
21305;SDS011;10812;51.838;5.838;2023-05-13T15:00:18;4.45;;;2.75;;
21305;SDS011;10812;51.838;5.838;2023-05-13T15:02:47;3.75;;;2.63;;
21305;SDS011;10812;51.838;5.838;2023-05-13T15:05:15;6.25;;;2.90;;
21305;SDS011;10812;51.838;5.838;2023-05-13T15:07:43;5.28;;;2.45;;
21305;SDS011;10812;51.838;5.838;2023-05-13T15:10:11;6.40;;;3.08;;
21305;SDS011;10812;51.838;5.838;2023-05-13T15:12:41;3.90;;;2.45;;
21305;SDS011;10812;51.838;5.838;2023-05-13T15:15:09;3.45;;;2.33;;
21305;SDS011;10812;51.838;5.838;2023-05-13T15:17:38;3.78;;;2.47;;
21305;SDS011;10812;51.838;5.838;2023-05-13T15:20:06;3.90;;;2.60;;
21305;SDS011;10812;51.838;5.838;2023-05-13T15:22:35;3.67;;;2.90;;
21305;SDS011;10812;51.838;5.838;2023-05-13T15:25:03;4.35;;;3.08;;
21305;SDS011;10812;51.838;5.838;2023-05-13T15:27:32;3.13;;;2.70;;
21305;SDS011;10812;51.838;5.838;2023-05-13T15:30:01;2.83;;;2.53;;
21305;SDS011;10812;51.838;5.838;2023-05-13T15:32:30;3.92;;;2.70;;
21305;SDS011;10812;51.838;5.838;2023-05-13T15:34:58;3.13;;;2.75;;
21305;SDS011;10812;51.838;5.838;2023-05-13T15:37:26;3.75;;;2.58;;
21305;SDS011;10812;51.838;5.838;2023-05-13T15:39:54;4.03;;;2.65;;
21305;SDS011;10812;51.838;5.838;2023-05-13T15:42:22;4.85;;;2.60;;
21305;SDS011;10812;51.838;5.838;2023-05-13T15:44:50;5.10;;;2.60;;
21305;SDS011;10812;51.838;5.838;2023-05-13T15:47:20;4.82;;;2.75;;
21305;SDS011;10812;51.838;5.838;2023-05-13T15:49:48;3.85;;;2.15;;
21305;SDS011;10812;51.838;5.838;2023-05-13T15:52:18;3.35;;;2.30;;
21305;SDS011;10812;51.838;5.838;2023-05-13T15:54:46;5.05;;;2.55;;
21305;SDS011;10812;51.838;5.838;2023-05-13T15:57:15;3.22;;;2.80;;
21305;SDS011;10812;51.838;5.838;2023-05-13T15:59:44;3.90;;;2.50;;
21305;SDS011;10812;51.838;5.838;2023-05-13T16:02:12;7.60;;;2.42;;
21305;SDS011;10812;51.838;5.838;2023-05-13T16:04:41;3.88;;;2.78;;
21305;SDS011;10812;51.838;5.838;2023-05-13T16:07:10;7.18;;;3.05;;
21305;SDS011;10812;51.838;5.838;2023-05-13T16:09:38;6.22;;;2.75;;
21305;SDS011;10812;51.838;5.838;2023-05-13T16:12:07;3.33;;;2.60;;
21305;SDS011;10812;51.838;5.838;2023-05-13T16:14:35;3.03;;;2.72;;
21305;SDS011;10812;51.838;5.838;2023-05-13T16:17:03;3.50;;;2.47;;
21305;SDS011;10812;51.838;5.838;2023-05-13T16:19:31;4.32;;;2.67;;
21305;SDS011;10812;51.838;5.838;2023-05-13T16:22:12;3.28;;;2.88;;
21305;SDS011;10812;51.838;5.838;2023-05-13T16:24:51;4.15;;;3.10;;
21305;SDS011;10812;51.838;5.838;2023-05-13T16:27:19;4.68;;;2.80;;
21305;SDS011;10812;51.838;5.838;2023-05-13T16:29:47;6.32;;;2.58;;
21305;SDS011;10812;51.838;5.838;2023-05-13T16:32:15;3.30;;;2.60;;
21305;SDS011;10812;51.838;5.838;2023-05-13T16:34:43;3.53;;;2.33;;
21305;SDS011;10812;51.838;5.838;2023-05-13T16:37:12;4.68;;;2.60;;
21305;SDS011;10812;51.838;5.838;2023-05-13T16:39:41;2.67;;;2.28;;
21305;SDS011;10812;51.838;5.838;2023-05-13T16:42:09;3.25;;;2.83;;
21305;SDS011;10812;51.838;5.838;2023-05-13T16:44:37;3.63;;;2.65;;
21305;SDS011;10812;51.838;5.838;2023-05-13T16:47:05;4.72;;;2.80;;
21305;SDS011;10812;51.838;5.838;2023-05-13T16:49:34;3.50;;;3.20;;
21305;SDS011;10812;51.838;5.838;2023-05-13T16:52:03;2.83;;;2.58;;
21305;SDS011;10812;51.838;5.838;2023-05-13T16:54:33;4.13;;;3.42;;
21305;SDS011;10812;51.838;5.838;2023-05-13T16:57:01;4.82;;;3.03;;
21305;SDS011;10812;51.838;5.838;2023-05-13T16:59:30;3.40;;;3.10;;
21305;SDS011;10812;51.838;5.838;2023-05-13T17:05:49;4.95;;;3.00;;
21305;SDS011;10812;51.838;5.838;2023-05-13T17:08:17;3.60;;;3.30;;
21305;SDS011;10812;51.838;5.838;2023-05-13T17:10:48;4.35;;;3.17;;
21305;SDS011;10812;51.838;5.838;2023-05-13T17:13:16;3.67;;;3.15;;
21305;SDS011;10812;51.838;5.838;2023-05-13T17:15:45;2.80;;;2.60;;
21305;SDS011;10812;51.838;5.838;2023-05-13T17:18:13;4.00;;;2.60;;
21305;SDS011;10812;51.838;5.838;2023-05-13T17:20:41;4.90;;;2.83;;
21305;SDS011;10812;51.838;5.838;2023-05-13T17:23:11;6.70;;;5.40;;
21305;SDS011;10812;51.838;5.838;2023-05-13T17:25:39;5.95;;;4.03;;
21305;SDS011;10812;51.838;5.838;2023-05-13T17:28:08;4.55;;;3.13;;